Time;durP1;ratioP1;P1;durP2;ratioP2;P2;SDS_P1;SDS_P2;PMS_P1;PMS_P2;Temp;Humidity;BMP_temperature;BMP_pressure;BME280_temperature;BME280_humidity;BME280_pressure;Samples;Min_cycle;Max_cycle;Signal;HPM_P1;HPM_P2
2022/05/11 00:02:19;;;;;;;0.00;0.00;;;20.50;60.20;;;;;;4216643;28;20426;-66
2022/05/11 00:04:42;;;;;;;6.68;0.47;;;20.50;60.20;;;;;;4206260;28;20060;-66
2022/05/11 00:07:06;;;;;;;8.05;1.85;;;20.50;60.20;;;;;;4216499;28;20056;-66
2022/05/11 00:09:28;;;;;;;0.00;0.00;;;20.50;60.30;;;;;;4216976;28;20097;-66
2022/05/11 00:11:49;;;;;;;0.20;0.20;;;20.50;60.30;;;;;;4216324;28;20048;-67
2022/05/11 00:14:12;;;;;;;0.00;0.00;;;20.50;60.40;;;;;;4230527;28;20116;-66
2022/05/11 00:16:35;;;;;;;0.00;0.00;;;20.50;60.40;;;;;;4233252;28;20079;-65
2022/05/11 00:18:57;;;;;;;0.20;0.20;;;20.50;60.50;;;;;;4232399;28;20101;-66
2022/05/11 00:21:20;;;;;;;0.00;0.00;;;20.50;60.50;;;;;;4233379;28;20060;-66
2022/05/11 00:23:44;;;;;;;0.05;0.05;;;20.40;60.60;;;;;;4222552;28;20079;-66
2022/05/11 00:26:06;;;;;;;0.00;0.00;;;20.50;60.70;;;;;;4216029;28;20089;-66
2022/05/11 00:28:28;;;;;;;0.32;0.32;;;20.40;60.70;;;;;;4216265;28;20792;-67
2022/05/11 00:30:50;;;;;;;0.20;0.20;;;20.50;61.00;;;;;;4216317;28;20480;-67
2022/05/11 00:33:15;;;;;;;11.40;1.88;;;20.40;60.90;;;;;;4199204;28;20053;-67
2022/05/11 00:35:37;;;;;;;0.00;0.00;;;20.40;61.00;;;;;;4213349;28;20136;-67
2022/05/11 00:37:59;;;;;;;0.00;0.00;;;20.40;61.10;;;;;;4216029;28;20070;-66
2022/05/11 00:40:24;;;;;;;0.00;0.00;;;20.40;61.20;;;;;;4215988;28;20471;-67
2022/05/11 00:42:45;;;;;;;0.00;0.00;;;20.40;61.30;;;;;;4231925;28;20093;-67
2022/05/11 00:45:09;;;;;;;0.20;0.20;;;20.40;61.40;;;;;;4232853;28;20093;-66
2022/05/11 00:47:36;;;;;;;0.22;0.22;;;20.40;61.50;;;;;;4232657;28;20085;-66
2022/05/11 00:50:00;;;;;;;0.00;0.00;;;20.40;61.60;;;;;;4232726;28;20666;-67
2022/05/11 00:52:28;;;;;;;0.00;0.00;;;20.40;61.60;;;;;;4219678;28;20059;-67
2022/05/11 00:54:56;;;;;;;0.00;0.00;;;20.40;61.60;;;;;;4214467;28;20052;-66
2022/05/11 00:57:23;;;;;;;0.25;0.25;;;20.30;61.70;;;;;;4214461;28;20513;-66
2022/05/11 00:59:49;;;;;;;0.00;0.00;;;20.30;61.70;;;;;;4198696;28;20059;-67
2022/05/11 01:02:14;;;;;;;0.00;0.00;;;20.30;61.80;;;;;;4198502;28;20063;-66
2022/05/11 01:04:39;;;;;;;0.20;0.20;;;20.30;61.80;;;;;;4205437;28;20070;-66
2022/05/11 01:07:02;;;;;;;0.20;0.20;;;20.40;61.90;;;;;;4214060;28;20435;-66
2022/05/11 01:09:24;;;;;;;0.00;0.00;;;20.30;61.90;;;;;;4230617;28;20405;-66
2022/05/11 01:11:48;;;;;;;0.45;0.45;;;20.30;62.00;;;;;;4232622;28;20061;-66
2022/05/11 01:14:14;;;;;;;0.00;0.00;;;20.30;62.00;;;;;;4232652;28;20077;-66
2022/05/11 01:16:37;;;;;;;0.10;0.10;;;20.30;62.10;;;;;;4229337;28;20121;-66
2022/05/11 01:18:59;;;;;;;0.25;0.25;;;20.30;62.10;;;;;;4215628;28;20127;-66
2022/05/11 01:21:26;;;;;;;7.70;0.45;;;20.30;62.10;;;;;;4215538;28;20531;-67
2022/05/11 01:23:55;;;;;;;0.00;0.00;;;20.30;62.20;;;;;;4214936;28;20098;-66
2022/05/11 01:26:19;;;;;;;0.00;0.00;;;20.30;62.30;;;;;;4215257;28;20087;-67
2022/05/11 01:28:42;;;;;;;0.00;0.00;;;20.30;62.40;;;;;;4211713;28;20188;-67
2022/05/11 01:31:07;;;;;;;0.03;0.03;;;20.30;62.30;;;;;;4215333;28;20790;-68
2022/05/11 01:33:29;;;;;;;0.00;0.00;;;20.30;62.40;;;;;;4215073;28;20056;-67
2022/05/11 01:36:00;;;;;;;0.00;0.00;;;20.30;62.40;;;;;;4215188;28;20056;-69
2022/05/11 01:38:31;;;;;;;0.00;0.00;;;20.30;62.50;;;;;;4197505;28;20120;-66
2022/05/11 01:40:54;;;;;;;0.00;0.00;;;20.30;62.60;;;;;;4197929;28;20060;-68
2022/05/11 01:43:21;;;;;;;1.27;0.47;;;20.20;62.70;;;;;;4197971;28;20057;-67
2022/05/11 01:45:43;;;;;;;1.20;0.57;;;20.20;62.60;;;;;;4198114;28;20551;-66
2022/05/11 01:48:06;;;;;;;0.00;0.00;;;20.20;62.70;;;;;;4227208;28;20135;-67
2022/05/11 01:50:28;;;;;;;0.00;0.00;;;20.20;62.70;;;;;;4231679;28;20051;-67
2022/05/11 01:52:50;;;;;;;0.00;0.00;;;20.30;62.90;;;;;;4231375;28;20063;-66
2022/05/11 01:55:12;;;;;;;0.00;0.00;;;20.20;62.80;;;;;;4215443;28;20048;-66
2022/05/11 01:57:35;;;;;;;0.00;0.00;;;20.20;62.80;;;;;;4214353;28;20670;-67
2022/05/11 01:59:59;;;;;;;0.10;0.10;;;20.20;62.90;;;;;;4214352;28;20105;-66
2022/05/11 02:02:21;;;;;;;1.88;1.08;;;20.20;62.90;;;;;;4214520;28;20062;-67
2022/05/11 02:10:03;;;;;;;0.00;0.00;;;20.20;62.90;;;;;;4213127;28;20051;-67
2022/05/11 02:12:25;;;;;;;0.00;0.00;;;20.20;63.00;;;;;;4214077;28;20083;-67
2022/05/11 02:14:47;;;;;;;0.00;0.00;;;20.20;63.00;;;;;;4226084;28;20066;-67
2022/05/11 02:17:12;;;;;;;0.63;0.63;;;20.20;63.00;;;;;;4230798;28;20071;-67
2022/05/11 02:19:34;;;;;;;2.20;2.00;;;20.20;63.10;;;;;;4230594;28;20470;-66
2022/05/11 02:21:56;;;;;;;0.00;0.00;;;20.20;63.10;;;;;;4230739;28;20492;-67
2022/05/11 02:24:18;;;;;;;0.05;0.05;;;20.20;63.10;;;;;;4221296;28;20114;-67
2022/05/11 02:26:39;;;;;;;0.73;0.73;;;20.20;63.10;;;;;;4213336;28;20399;-66
2022/05/11 02:29:02;;;;;;;0.10;0.10;;;20.20;63.20;;;;;;4213637;28;20147;-67
2022/05/11 02:31:23;;;;;;;0.00;0.00;;;20.20;63.20;;;;;;4212641;28;20093;-68
2022/05/11 02:33:47;;;;;;;0.38;0.20;;;20.10;63.20;;;;;;4220554;28;20047;-67
2022/05/11 02:36:09;;;;;;;0.00;0.00;;;20.20;63.10;;;;;;4213964;28;20510;-67
2022/05/11 02:38:34;;;;;;;0.00;0.00;;;20.20;63.30;;;;;;4212348;28;20052;-67
2022/05/11 02:40:57;;;;;;;2.28;1.45;;;20.20;63.30;;;;;;4212931;28;20506;-67
2022/05/11 02:43:19;;;;;;;0.00;0.00;;;20.20;63.40;;;;;;4216340;28;20087;-67
2022/05/11 02:45:42;;;;;;;0.10;0.10;;;20.10;63.30;;;;;;4230346;28;20452;-66
2022/05/11 02:48:06;;;;;;;0.05;0.05;;;20.10;63.40;;;;;;4230204;28;20092;-67
2022/05/11 02:50:32;;;;;;;0.00;0.00;;;20.10;63.30;;;;;;4230112;28;20052;-66
2022/05/11 02:52:54;;;;;;;0.00;0.00;;;20.10;63.40;;;;;;4230067;28;20402;-66
2022/05/11 02:55:17;;;;;;;0.20;0.20;;;20.10;63.50;;;;;;4229634;28;20143;-66
2022/05/11 02:57:39;;;;;;;0.00;0.00;;;20.10;63.50;;;;;;4220409;28;20147;-66
2022/05/11 03:00:01;;;;;;;0.52;0.45;;;20.10;63.60;;;;;;4213510;28;20491;-66
2022/05/11 03:02:24;;;;;;;0.00;0.00;;;20.10;64.60;;;;;;4214032;28;20537;-66
2022/05/11 03:04:47;;;;;;;0.00;0.00;;;20.10;63.70;;;;;;4220420;28;20085;-66
2022/05/11 03:07:10;;;;;;;0.00;0.00;;;20.10;63.60;;;;;;4197266;28;20143;-66
2022/05/11 03:09:32;;;;;;;0.20;0.20;;;20.10;63.50;;;;;;4195976;28;20052;-66
2022/05/11 03:11:54;;;;;;;0.00;0.00;;;20.10;63.60;;;;;;4197107;28;20076;-66
2022/05/11 03:14:17;;;;;;;0.00;0.00;;;20.10;63.60;;;;;;4222542;28;20421;-66
2022/05/11 03:16:39;;;;;;;0.40;0.40;;;20.10;63.60;;;;;;4230467;28;20395;-66
2022/05/11 03:19:02;;;;;;;0.00;0.00;;;20.10;63.70;;;;;;4230524;28;20056;-66
2022/05/11 03:21:25;;;;;;;0.00;0.00;;;20.00;63.50;;;;;;4229657;28;20066;-66
2022/05/11 03:23:48;;;;;;;0.00;0.00;;;20.10;63.60;;;;;;4221475;28;20130;-67
2022/05/11 03:26:14;;;;;;;0.00;0.00;;;20.00;63.50;;;;;;4213801;28;20059;-66
2022/05/11 03:28:36;;;;;;;0.45;0.45;;;20.00;63.50;;;;;;4213618;28;20078;-67
2022/05/11 03:30:57;;;;;;;0.00;0.00;;;20.00;63.70;;;;;;4213603;28;20052;-67
2022/05/11 03:35:59;;;;;;;1.70;0.30;;;20.00;63.70;;;;;;4213661;28;20051;-67
2022/05/11 03:38:21;;;;;;;0.00;0.00;;;20.00;63.70;;;;;;4213445;28;20056;-67
2022/05/11 03:40:45;;;;;;;0.57;0.55;;;20.00;63.70;;;;;;4212437;28;20400;-67
2022/05/11 03:43:07;;;;;;;0.08;0.08;;;20.00;63.80;;;;;;4213529;28;20059;-67
2022/05/11 03:45:29;;;;;;;0.00;0.00;;;20.00;63.90;;;;;;4212228;28;20044;-66
2022/05/11 03:47:51;;;;;;;0.00;0.00;;;20.00;63.90;;;;;;4213318;28;20085;-67
2022/05/11 03:50:14;;;;;;;0.50;0.50;;;20.00;63.80;;;;;;4213169;28;20052;-66
2022/05/11 03:52:37;;;;;;;0.00;0.00;;;20.00;63.80;;;;;;4224840;28;20138;-66
2022/05/11 03:54:58;;;;;;;0.00;0.00;;;20.00;63.90;;;;;;4230172;28;20052;-66
2022/05/11 03:57:22;;;;;;;1.15;0.88;;;20.00;63.90;;;;;;4230546;28;20062;-67
2022/05/11 03:59:44;;;;;;;0.00;0.00;;;19.90;63.90;;;;;;4230017;28;20052;-67
2022/05/11 04:02:06;;;;;;;0.00;0.00;;;20.00;64.00;;;;;;4221536;28;20044;-67
2022/05/11 04:04:28;;;;;;;0.00;0.00;;;19.90;63.90;;;;;;4213295;28;20466;-67
2022/05/11 04:06:50;;;;;;;9.73;2.08;;;20.00;64.00;;;;;;4213557;28;20052;-66
2022/05/11 04:09:12;;;;;;;0.00;0.00;;;19.90;64.00;;;;;;4213347;28;20063;-66
2022/05/11 04:11:36;;;;;;;0.00;0.00;;;20.00;64.00;;;;;;4215874;28;20076;-66
2022/05/11 04:13:59;;;;;;;0.00;0.00;;;20.00;64.10;;;;;;4230127;28;20125;-67
2022/05/11 04:16:22;;;;;;;0.10;0.10;;;20.00;64.10;;;;;;4196226;28;20059;-66
2022/05/11 04:18:45;;;;;;;0.05;0.05;;;20.00;64.00;;;;;;4196445;28;20056;-66
2022/05/11 04:21:07;;;;;;;0.30;0.30;;;20.00;64.10;;;;;;4196141;28;20099;-67
2022/05/11 04:23:29;;;;;;;0.00;0.00;;;19.90;64.10;;;;;;4162695;28;20060;-67
2022/05/11 04:25:50;;;;;;;0.00;0.00;;;19.90;64.10;;;;;;4163418;28;20140;-66
2022/05/11 04:28:14;;;;;;;0.00;0.00;;;19.90;64.20;;;;;;4163675;28;20145;-67
2022/05/11 04:30:38;;;;;;;0.00;0.00;;;20.00;64.20;;;;;;4163309;28;20063;-67
2022/05/11 04:33:00;;;;;;;0.00;0.00;;;19.90;64.20;;;;;;4193944;28;20407;-66
2022/05/11 04:35:23;;;;;;;0.00;0.00;;;19.90;64.10;;;;;;4186135;28;20479;-67
2022/05/11 04:37:45;;;;;;;0.00;0.00;;;19.90;64.20;;;;;;4181517;28;20059;-66
2022/05/11 04:40:10;;;;;;;0.08;0.08;;;20.00;64.30;;;;;;4182855;28;20510;-66
2022/05/11 04:42:36;;;;;;;0.95;0.95;;;19.90;64.30;;;;;;4182842;28;20072;-66
2022/05/11 04:44:59;;;;;;;0.00;0.00;;;19.90;64.40;;;;;;4182727;28;20107;-66
2022/05/11 04:47:22;;;;;;;0.20;0.20;;;19.90;64.30;;;;;;4182251;28;20047;-66
2022/05/11 04:49:44;;;;;;;0.00;0.00;;;19.90;64.40;;;;;;4182673;28;20059;-67
2022/05/11 04:52:09;;;;;;;0.85;0.30;;;19.90;64.30;;;;;;4190563;28;20060;-66
2022/05/11 04:54:31;;;;;;;0.22;0.22;;;19.90;64.40;;;;;;4198993;28;20147;-67
2022/05/11 04:56:53;;;;;;;1.30;1.20;;;19.90;64.40;;;;;;4199087;28;20079;-66
2022/05/11 04:59:15;;;;;;;0.17;0.10;;;19.90;64.50;;;;;;4198998;28;20079;-67
2022/05/11 05:01:37;;;;;;;0.55;0.55;;;19.90;64.40;;;;;;4165995;28;20065;-66
2022/05/11 05:04:02;;;;;;;0.00;0.00;;;19.90;64.50;;;;;;4166615;28;20136;-66
2022/05/11 05:06:24;;;;;;;0.00;0.00;;;19.90;64.50;;;;;;4182177;28;20056;-66
2022/05/11 05:08:46;;;;;;;0.00;0.00;;;19.90;64.40;;;;;;4190345;28;20509;-66
2022/05/11 05:11:08;;;;;;;0.00;0.00;;;19.90;64.40;;;;;;4198863;28;20537;-66
2022/05/11 05:13:30;;;;;;;3.10;2.00;;;19.90;64.50;;;;;;4198731;28;20056;-66
2022/05/11 05:15:57;;;;;;;0.00;0.00;;;19.90;64.80;;;;;;4229972;28;20055;-66
2022/05/11 05:18:19;;;;;;;0.00;0.00;;;19.90;65.20;;;;;;4227871;28;20055;-66
2022/05/11 05:20:42;;;;;;;0.00;0.00;;;20.00;65.20;;;;;;4214761;28;20050;-66
2022/05/11 05:23:05;;;;;;;0.00;0.00;;;20.00;65.10;;;;;;4208479;28;20051;-67
2022/05/11 05:25:28;;;;;;;2.38;1.45;;;20.00;65.00;;;;;;4214621;28;20059;-66
2022/05/11 05:27:51;;;;;;;0.00;0.00;;;20.00;64.90;;;;;;4210804;28;20110;-66
2022/05/11 05:32:52;;;;;;;4.72;2.20;;;19.90;64.20;;;;;;4198632;28;20056;-65
2022/05/11 05:35:17;;;;;;;0.17;0.17;;;20.00;64.00;;;;;;4209048;28;20063;-65
2022/05/11 05:37:40;;;;;;;1.50;1.50;;;20.00;63.80;;;;;;4215948;28;20422;-65
2022/05/11 05:40:05;;;;;;;0.65;0.65;;;20.00;63.60;;;;;;4215157;28;20048;-67
2022/05/11 05:42:28;;;;;;;0.10;0.10;;;19.90;63.50;;;;;;4216994;28;20058;-66
2022/05/11 05:44:50;;;;;;;0.00;0.00;;;19.90;63.50;;;;;;4213895;28;20483;-66
2022/05/11 05:47:13;;;;;;;0.00;0.00;;;19.90;63.30;;;;;;4215059;28;20548;-66
2022/05/11 05:49:35;;;;;;;0.00;0.00;;;19.90;63.10;;;;;;4214861;28;20060;-67
2022/05/11 05:51:58;;;;;;;0.00;0.00;;;19.90;63.10;;;;;;4214006;28;20548;-67
2022/05/11 05:54:21;;;;;;;0.22;0.22;;;19.90;63.30;;;;;;4214821;28;20056;-68
2022/05/11 05:56:43;;;;;;;0.30;0.30;;;19.90;63.20;;;;;;4214842;28;20056;-68
2022/05/11 05:59:09;;;;;;;0.00;0.00;;;19.90;63.20;;;;;;4214689;28;20052;-68
2022/05/11 06:01:31;;;;;;;0.50;0.50;;;19.90;63.10;;;;;;4214881;28;20044;-68
2022/05/11 06:03:54;;;;;;;0.00;0.00;;;19.90;63.00;;;;;;4214480;28;20379;-68
2022/05/11 06:06:15;;;;;;;0.47;0.47;;;19.90;63.00;;;;;;4214598;28;20439;-68
2022/05/11 06:08:38;;;;;;;0.28;0.28;;;19.90;62.90;;;;;;4214091;28;20052;-68
2022/05/11 06:11:02;;;;;;;0.00;0.00;;;19.90;62.80;;;;;;4214625;28;20460;-67
2022/05/11 06:13:24;;;;;;;0.00;0.00;;;19.90;62.80;;;;;;4214424;28;20064;-67
2022/05/11 06:15:47;;;;;;;0.00;0.00;;;19.90;62.80;;;;;;4214236;28;20733;-65
2022/05/11 06:18:13;;;;;;;0.52;0.52;;;19.80;62.70;;;;;;4214451;28;20403;-67
2022/05/11 06:20:35;;;;;;;0.00;0.00;;;19.90;62.80;;;;;;4212997;28;20074;-68
2022/05/11 06:22:57;;;;;;;0.00;0.00;;;19.90;62.70;;;;;;4213878;28;20044;-68
2022/05/11 06:25:20;;;;;;;0.05;0.05;;;19.90;62.70;;;;;;4214176;28;20136;-67
2022/05/11 06:27:43;;;;;;;0.00;0.00;;;19.80;62.60;;;;;;4213950;28;20048;-68
2022/05/11 06:30:07;;;;;;;0.13;0.13;;;19.90;62.60;;;;;;4214208;28;20061;-68
2022/05/11 06:32:29;;;;;;;0.00;0.00;;;19.90;62.60;;;;;;4212590;28;20048;-68
2022/05/11 06:34:52;;;;;;;0.00;0.00;;;19.90;62.60;;;;;;4204698;28;20106;-68
2022/05/11 06:37:14;;;;;;;0.13;0.13;;;19.90;62.60;;;;;;4195656;28;20128;-68
2022/05/11 06:39:36;;;;;;;0.00;0.00;;;19.80;62.60;;;;;;4199807;28;20043;-68
2022/05/11 06:41:59;;;;;;;0.30;0.30;;;19.80;62.60;;;;;;4214022;28;20499;-68
2022/05/11 06:44:22;;;;;;;0.00;0.00;;;19.90;62.70;;;;;;4214040;28;20055;-68
2022/05/11 06:46:45;;;;;;;0.00;0.00;;;19.90;62.70;;;;;;4214854;28;20059;-67
2022/05/11 06:49:08;;;;;;;0.00;0.00;;;19.90;62.70;;;;;;4213701;28;20558;-68
2022/05/11 06:51:30;;;;;;;0.30;0.30;;;19.90;62.80;;;;;;4213675;28;20060;-69
2022/05/11 06:59:25;;;;;;;0.00;0.00;;;19.90;63.10;;;;;;4230147;28;20056;-69
2022/05/11 07:01:48;;;;;;;2.28;2.08;;;19.90;63.10;;;;;;4230418;28;20058;-68
2022/05/11 07:04:11;;;;;;;0.63;0.63;;;19.80;63.80;;;;;;4227164;28;20644;-68
2022/05/11 07:06:33;;;;;;;0.00;0.00;;;19.80;62.90;;;;;;4216188;28;20066;-68
2022/05/11 07:08:56;;;;;;;0.00;0.00;;;19.90;63.00;;;;;;4213723;28;20052;-69
2022/05/11 07:13:58;;;;;;;0.55;0.55;;;19.80;62.90;;;;;;4213812;28;20156;-68
2022/05/11 07:16:21;;;;;;;0.35;0.35;;;19.80;63.00;;;;;;4218310;28;20066;-67
2022/05/11 07:18:45;;;;;;;3.63;0.57;;;19.80;63.00;;;;;;4230177;28;20428;-67
2022/05/11 07:21:07;;;;;;;0.20;0.20;;;19.80;63.00;;;;;;4230311;28;20499;-68
2022/05/11 07:23:30;;;;;;;2.53;0.60;;;19.80;63.10;;;;;;4230680;28;20499;-68
2022/05/11 07:25:55;;;;;;;0.10;0.10;;;19.80;63.10;;;;;;4229482;28;20055;-67
2022/05/11 07:28:17;;;;;;;0.10;0.10;;;19.80;63.10;;;;;;4196319;28;20048;-68
2022/05/11 07:30:42;;;;;;;0.00;0.00;;;19.80;63.20;;;;;;4195902;28;20530;-67
2022/05/11 07:33:05;;;;;;;0.52;0.52;;;19.80;63.20;;;;;;4197025;28;20517;-67
2022/05/11 07:35:29;;;;;;;0.10;0.10;;;19.80;63.20;;;;;;4210084;28;20069;-67
2022/05/11 07:37:51;;;;;;;0.47;0.38;;;19.90;63.30;;;;;;4228337;28;20062;-67
2022/05/11 07:40:15;;;;;;;0.00;0.00;;;19.80;63.30;;;;;;4230490;28;20052;-68
2022/05/11 07:42:41;;;;;;;0.17;0.17;;;19.80;63.20;;;;;;4229323;28;20044;-67
2022/05/11 07:45:04;;;;;;;0.08;0.08;;;19.80;63.30;;;;;;4222811;28;20047;-69
2022/05/11 07:47:26;;;;;;;0.10;0.10;;;19.90;63.50;;;;;;4213540;28;20470;-67
2022/05/11 07:49:49;;;;;;;0.20;0.20;;;19.90;63.70;;;;;;4212789;28;20568;-66
2022/05/11 07:52:12;;;;;;;0.00;0.00;;;19.90;63.50;;;;;;4212434;28;20083;-67
2022/05/11 07:54:34;;;;;;;0.22;0.20;;;19.90;63.30;;;;;;4214780;28;20791;-67
2022/05/11 08:02:16;;;;;;;0.73;0.73;;;20.00;63.20;;;;;;4220099;28;20044;-67
2022/05/11 08:04:41;;;;;;;0.03;0.03;;;20.00;63.10;;;;;;4222924;28;20205;-66
2022/05/11 08:07:04;;;;;;;0.00;0.00;;;20.00;63.20;;;;;;4214959;28;20055;-67
2022/05/11 08:09:28;;;;;;;0.80;0.80;;;20.00;63.00;;;;;;4215815;28;20047;-67
2022/05/11 08:11:52;;;;;;;0.00;0.00;;;20.00;62.80;;;;;;4216041;28;20055;-67
2022/05/11 08:14:14;;;;;;;0.00;0.00;;;20.10;62.70;;;;;;4216146;28;20056;-67
2022/05/11 08:16:36;;;;;;;0.10;0.10;;;20.10;62.60;;;;;;4216494;28;20055;-67
2022/05/11 08:18:58;;;;;;;0.00;0.00;;;20.10;62.40;;;;;;4216386;28;20059;-67
2022/05/11 08:21:20;;;;;;;1.00;0.22;;;20.10;62.20;;;;;;4216483;28;20117;-67
2022/05/11 08:23:43;;;;;;;0.00;0.00;;;20.20;62.10;;;;;;4215347;28;20059;-67
2022/05/11 08:26:06;;;;;;;0.00;0.00;;;20.20;61.90;;;;;;4215326;28;20044;-66
2022/05/11 08:28:28;;;;;;;0.32;0.32;;;20.30;61.90;;;;;;4216397;28;20054;-67
2022/05/11 08:33:34;;;;;;;0.10;0.10;;;20.30;61.50;;;;;;4216217;28;20056;-67
2022/05/11 08:36:19;;;;;;;0.03;0.03;;;20.30;61.40;;;;;;4216284;28;20067;-67
2022/05/11 08:38:42;;;;;;;0.05;0.05;;;20.30;61.20;;;;;;4215040;28;20070;-67
2022/05/11 08:41:16;;;;;;;0.10;0.10;;;20.30;61.10;;;;;;4215462;28;20775;-67
2022/05/11 08:43:38;;;;;;;0.00;0.00;;;20.30;61.00;;;;;;4215943;28;20048;-67
2022/05/11 08:46:09;;;;;;;0.00;0.00;;;20.30;60.80;;;;;;4215980;28;20056;-67
2022/05/11 08:48:40;;;;;;;3.88;0.98;;;20.30;60.80;;;;;;4215547;28;20052;-67
2022/05/11 08:51:04;;;;;;;0.25;0.25;;;20.40;61.60;;;;;;4215884;28;20113;-67
2022/05/11 08:53:37;;;;;;;0.30;0.30;;;20.40;60.70;;;;;;4215727;28;20055;-66
2022/05/11 08:56:04;;;;;;;0.15;0.15;;;20.40;60.60;;;;;;4215587;28;20150;-67
2022/05/11 08:58:33;;;;;;;0.00;0.00;;;20.40;60.40;;;;;;4215926;28;20055;-67
2022/05/11 09:00:57;;;;;;;0.00;0.00;;;20.40;60.20;;;;;;4215744;28;20476;-67
2022/05/11 09:03:31;;;;;;;0.30;0.30;;;20.40;60.10;;;;;;4215655;28;20123;-67
2022/05/11 09:05:55;;;;;;;0.00;0.00;;;20.40;60.00;;;;;;4215623;28;20540;-67
2022/05/11 09:08:17;;;;;;;0.00;0.00;;;20.50;60.00;;;;;;4214906;28;20052;-67
2022/05/11 09:10:40;;;;;;;0.00;0.00;;;20.50;60.00;;;;;;4214432;28;20125;-67
2022/05/11 09:13:05;;;;;;;0.00;0.00;;;20.50;59.90;;;;;;4215628;28;20052;-67
2022/05/11 09:15:50;;;;;;;0.00;0.00;;;20.50;59.90;;;;;;4214966;28;20067;-67
2022/05/11 09:18:13;;;;;;;0.00;0.00;;;20.50;59.90;;;;;;4214005;28;20063;-67
2022/05/11 09:20:36;;;;;;;0.47;0.47;;;20.50;59.90;;;;;;4214965;28;20058;-68
2022/05/11 09:23:02;;;;;;;0.08;0.08;;;20.50;59.80;;;;;;4213044;28;20055;-66
2022/05/11 09:25:26;;;;;;;34.80;2.38;;;20.50;59.70;;;;;;4214143;28;20140;-67
2022/05/11 09:27:50;;;;;;;0.00;0.00;;;20.50;59.70;;;;;;4216690;28;20048;-68
2022/05/11 09:30:19;;;;;;;0.63;0.63;;;20.50;59.60;;;;;;4214528;28;20761;-67
2022/05/11 09:32:45;;;;;;;0.00;0.00;;;20.50;59.60;;;;;;4214098;28;20153;-67
2022/05/11 09:35:27;;;;;;;0.00;0.00;;;20.50;59.60;;;;;;4214221;28;20083;-67
2022/05/11 09:37:58;;;;;;;0.00;0.00;;;20.50;59.60;;;;;;4215675;28;20063;-67
2022/05/11 09:40:21;;;;;;;0.20;0.20;;;20.60;59.70;;;;;;4214430;28;20059;-66
2022/05/11 09:42:52;;;;;;;0.00;0.00;;;20.50;59.80;;;;;;4214442;28;20489;-67
2022/05/11 09:45:14;;;;;;;0.00;0.00;;;20.60;59.80;;;;;;4214604;28;20063;-67
2022/05/11 09:48:02;;;;;;;0.00;0.00;;;20.60;59.60;;;;;;4213949;28;20066;-66
2022/05/11 09:50:26;;;;;;;26.10;1.10;;;20.60;59.60;;;;;;4196763;28;20084;-66
2022/05/11 09:52:50;;;;;;;0.00;0.00;;;20.60;59.50;;;;;;4205043;28;20056;-67
2022/05/11 09:55:20;;;;;;;0.00;0.00;;;20.70;59.50;;;;;;4214253;28;20059;-67
2022/05/11 09:57:52;;;;;;;0.20;0.20;;;20.60;59.40;;;;;;4214471;28;20167;-67
2022/05/11 10:00:20;;;;;;;0.00;0.00;;;20.70;59.40;;;;;;4213709;28;20437;-66
2022/05/11 10:02:47;;;;;;;0.00;0.00;;;20.70;59.40;;;;;;4212985;28;20505;-66
2022/05/11 10:05:12;;;;;;;0.00;0.00;;;20.70;59.40;;;;;;4214375;28;20056;-66
2022/05/11 10:07:38;;;;;;;0.80;0.80;;;20.70;59.30;;;;;;4214177;28;20113;-66
2022/05/11 10:10:05;;;;;;;0.00;0.00;;;20.70;59.30;;;;;;4214341;28;20059;-67
2022/05/11 10:12:32;;;;;;;1.95;1.83;;;20.70;59.20;;;;;;4214173;28;20431;-66
2022/05/11 10:23:15;;;;;;;0.35;0.35;;;20.80;58.80;;;;;;4213823;28;20040;-66
2022/05/11 10:25:40;;;;;;;0.00;0.00;;;20.80;58.60;;;;;;4213682;28;20140;-66
2022/05/11 10:28:15;;;;;;;0.00;0.00;;;20.80;58.40;;;;;;4213626;28;20054;-67
2022/05/11 10:30:47;;;;;;;0.38;0.38;;;20.80;58.40;;;;;;4213636;28;20079;-67
2022/05/11 10:33:41;;;;;;;0.75;0.75;;;20.80;58.30;;;;;;4227028;28;20048;-66
2022/05/11 10:36:09;;;;;;;0.10;0.10;;;20.90;58.20;;;;;;4207152;28;20047;-66
2022/05/11 10:38:44;;;;;;;0.03;0.03;;;20.90;58.20;;;;;;4212406;28;20056;-66
2022/05/11 10:41:19;;;;;;;0.65;0.65;;;20.90;58.10;;;;;;4210291;28;20053;-66
2022/05/11 10:43:51;;;;;;;0.32;0.17;;;21.00;58.00;;;;;;4211742;28;20495;-66
2022/05/11 10:46:23;;;;;;;0.20;0.20;;;21.00;57.90;;;;;;4213178;28;20046;-65
2022/05/11 10:48:58;;;;;;;0.00;0.00;;;21.10;57.90;;;;;;4213314;28;20055;-65
2022/05/11 10:51:29;;;;;;;1.10;0.93;;;21.10;57.80;;;;;;4214404;28;20163;-65
2022/05/11 10:54:05;;;;;;;1.73;0.63;;;21.10;57.60;;;;;;4212305;28;20067;-64
2022/05/11 10:56:39;;;;;;;0.00;0.00;;;21.20;57.10;;;;;;4212846;28;20066;-64
2022/05/11 10:59:52;;;;;;;0.00;0.00;;;21.20;56.70;;;;;;4213022;28;20066;-64
2022/05/11 11:02:56;;;;;;;0.00;0.00;;;21.20;56.50;;;;;;4144613;28;20496;-64
2022/05/11 11:05:26;;;;;;;0.22;0.22;;;21.20;56.20;;;;;;4172122;28;20055;-64
2022/05/11 11:08:02;;;;;;;0.00;0.00;;;21.30;56.20;;;;;;4212798;28;20368;-64
2022/05/11 11:10:34;;;;;;;0.10;0.10;;;21.30;56.20;;;;;;4206691;28;20052;-67
2022/05/11 11:13:30;;;;;;;0.00;0.00;;;21.30;56.20;;;;;;4224679;28;20059;-65
2022/05/11 11:15:53;;;;;;;0.35;0.35;;;21.30;56.20;;;;;;4225711;28;20043;-66
2022/05/11 11:18:20;;;;;;;0.00;0.00;;;21.30;56.20;;;;;;4224896;28;20039;-67
2022/05/11 11:20:46;;;;;;;0.00;0.00;;;21.30;56.10;;;;;;4227145;28;20114;-66
2022/05/11 11:23:13;;;;;;;0.00;0.00;;;21.30;55.80;;;;;;4225036;28;20553;-66
2022/05/11 11:26:01;;;;;;;0.20;0.20;;;21.30;55.30;;;;;;4226285;28;20048;-66
2022/05/11 11:28:25;;;;;;;0.10;0.10;;;21.40;55.30;;;;;;4209038;28;20051;-67
2022/05/11 11:31:14;;;;;;;0.05;0.05;;;21.40;55.30;;;;;;4215980;28;20040;-67
2022/05/11 11:33:39;;;;;;;0.00;0.00;;;21.40;55.30;;;;;;4212108;28;20071;-67
2022/05/11 11:36:03;;;;;;;0.10;0.10;;;21.40;55.20;;;;;;4211934;28;20067;-66
2022/05/11 11:38:30;;;;;;;0.08;0.08;;;21.40;55.10;;;;;;4212728;28;20048;-66
2022/05/11 11:41:28;;;;;;;0.00;0.00;;;21.40;55.10;;;;;;4202649;27;20052;-67
2022/05/11 11:43:55;;;;;;;0.00;0.00;;;21.40;55.10;;;;;;4152249;28;20080;-67
2022/05/11 11:46:40;;;;;;;4.05;2.17;;;21.40;54.90;;;;;;4163756;28;20049;-67
2022/05/11 11:49:07;;;;;;;0.00;0.00;;;21.40;54.80;;;;;;4204184;28;20055;-67
2022/05/11 11:51:50;;;;;;;0.00;0.00;;;21.40;54.70;;;;;;4232775;28;20459;-67
2022/05/11 11:54:12;;;;;;;0.00;0.00;;;21.40;54.70;;;;;;4232973;28;20059;-67
2022/05/11 11:56:37;;;;;;;0.00;0.00;;;21.40;54.80;;;;;;4232557;28;20451;-67
2022/05/11 11:59:09;;;;;;;0.00;0.00;;;21.40;54.90;;;;;;4231441;28;20142;-68
2022/05/11 12:01:33;;;;;;;0.00;0.00;;;21.40;54.80;;;;;;4231949;28;20117;-67
2022/05/11 12:03:59;;;;;;;1.48;1.48;;;21.40;54.60;;;;;;4221899;28;20051;-68
2022/05/11 12:17:25;;;;;;;0.00;0.00;;;21.40;54.80;;;;;;4210643;28;20510;-67
2022/05/11 12:19:58;;;;;;;0.00;0.00;;;21.50;54.00;;;;;;4210625;28;20059;-67
2022/05/11 12:22:22;;;;;;;0.00;0.00;;;21.50;54.00;;;;;;4194013;28;20094;-68
2022/05/11 12:24:46;;;;;;;0.00;0.00;;;21.50;53.90;;;;;;4194134;28;20046;-67
2022/05/11 12:27:13;;;;;;;0.13;0.13;;;21.50;53.80;;;;;;4194185;28;20131;-68
2022/05/11 12:32:22;;;;;;;0.00;0.00;;;21.50;53.40;;;;;;4194197;28;20068;-68
2022/05/11 12:34:47;;;;;;;0.00;0.00;;;21.60;53.40;;;;;;4201193;28;20048;-67
2022/05/11 12:37:22;;;;;;;0.00;0.00;;;21.60;54.20;;;;;;4210346;28;20055;-67
2022/05/11 12:39:45;;;;;;;12.95;0.85;;;21.60;53.40;;;;;;4210236;28;20497;-68
2022/05/11 12:42:08;;;;;;;0.00;0.00;;;21.60;53.40;;;;;;4211681;27;20494;-68
2022/05/11 12:44:35;;;;;;;0.35;0.35;;;21.70;53.40;;;;;;4210634;28;20069;-69
2022/05/11 12:46:59;;;;;;;0.00;0.00;;;21.70;53.30;;;;;;4211142;28;20099;-68
2022/05/11 12:49:21;;;;;;;0.00;0.00;;;21.70;53.30;;;;;;4222415;27;20758;-68
2022/05/11 12:51:52;;;;;;;0.13;0.13;;;21.70;53.30;;;;;;4227467;27;20134;-68
2022/05/11 12:54:19;;;;;;;1.45;0.88;;;21.70;53.20;;;;;;4225551;28;20540;-69
2022/05/11 12:56:43;;;;;;;0.00;0.00;;;21.70;53.30;;;;;;4227381;27;20506;-68
2022/05/11 12:59:17;;;;;;;0.00;0.00;;;21.70;53.50;;;;;;4225240;27;20043;-68
2022/05/11 13:01:41;;;;;;;0.15;0.15;;;21.70;53.70;;;;;;4210237;28;20048;-68
2022/05/11 13:04:17;;;;;;;0.13;0.13;;;21.70;53.40;;;;;;4210086;28;20047;-67
2022/05/11 13:06:44;;;;;;;0.00;0.00;;;21.70;53.20;;;;;;4209912;28;20042;-68
2022/05/11 13:09:15;;;;;;;1.35;1.00;;;21.80;53.00;;;;;;4211011;28;20426;-68
2022/05/11 13:11:39;;;;;;;0.32;0.32;;;21.80;52.70;;;;;;4208905;28;20401;-68
2022/05/11 13:14:02;;;;;;;0.03;0.03;;;21.80;52.70;;;;;;4208371;28;20102;-68
2022/05/11 13:16:27;;;;;;;0.05;0.05;;;21.80;52.60;;;;;;4208775;28;20044;-67
2022/05/11 13:18:52;;;;;;;0.00;0.00;;;21.80;52.50;;;;;;4207122;28;20054;-68
2022/05/11 13:21:14;;;;;;;0.00;0.00;;;21.80;52.50;;;;;;4206876;28;20048;-67
2022/05/11 13:23:40;;;;;;;0.00;0.00;;;21.80;52.40;;;;;;4207204;28;20406;-68
2022/05/11 13:26:04;;;;;;;0.10;0.10;;;21.80;52.20;;;;;;4208319;28;20044;-68